Time;durP1;ratioP1;P1;durP2;ratioP2;P2;SDS_P1;SDS_P2;PMS_P1;PMS_P2;Temp;Humidity;BMP_temperature;BMP_pressure;BME280_temperature;BME280_humidity;BME280_pressure;Samples;Min_cycle;Max_cycle;Signal;HPM_P1;HPM_P2
2023/08/22 00:00:28;;;;;;;6.05;2.40;;;18.70;99.90;;;;;;5077636;28;20051;-72
2023/08/22 00:02:54;;;;;;;6.35;2.55;;;18.70;99.90;;;;;;5076837;28;20067;-71
2023/08/22 00:05:21;;;;;;;7.97;3.42;;;18.70;99.90;;;;;;5075527;28;20077;-70
2023/08/22 00:07:47;;;;;;;8.45;3.80;;;18.60;99.90;;;;;;5059912;28;20063;-71
2023/08/22 00:10:13;;;;;;;10.82;3.42;;;18.60;99.90;;;;;;5076510;28;20579;-70
2023/08/22 00:12:39;;;;;;;7.90;3.22;;;18.50;99.90;;;;;;5060190;28;20074;-69
2023/08/22 00:15:09;;;;;;;8.93;3.03;;;18.50;99.90;;;;;;5076804;28;20058;-70
2023/08/22 00:17:35;;;;;;;6.10;3.28;;;18.50;99.90;;;;;;5077685;28;20074;-70
2023/08/22 00:20:04;;;;;;;7.07;3.53;;;18.60;99.90;;;;;;5077745;28;20052;-70
2023/08/22 00:22:29;;;;;;;6.70;3.85;;;18.60;99.90;;;;;;5058159;28;20045;-70
2023/08/22 00:24:55;;;;;;;5.88;3.17;;;18.60;99.90;;;;;;5077481;28;20189;-70
2023/08/22 00:27:21;;;;;;;7.13;3.60;;;18.70;99.90;;;;;;5076222;28;20033;-70
2023/08/22 00:29:46;;;;;;;9.38;3.42;;;18.70;99.90;;;;;;5077932;28;20044;-70
2023/08/22 00:32:12;;;;;;;5.68;3.40;;;18.70;99.90;;;;;;5058541;28;20036;-70
2023/08/22 00:34:38;;;;;;;7.28;3.17;;;18.70;99.90;;;;;;5077218;28;20485;-71
2023/08/22 00:37:04;;;;;;;9.52;3.40;;;18.70;99.90;;;;;;5075907;28;20056;-70
2023/08/22 00:39:30;;;;;;;6.28;3.83;;;18.70;99.90;;;;;;5074755;28;20052;-70
2023/08/22 00:41:55;;;;;;;6.75;3.10;;;18.70;99.90;;;;;;5077743;28;20054;-70
2023/08/22 00:44:21;;;;;;;6.20;3.50;;;18.70;99.90;;;;;;5076288;28;20100;-72
2023/08/22 00:46:47;;;;;;;7.85;3.28;;;18.70;99.90;;;;;;5077794;28;20048;-70
2023/08/22 00:49:14;;;;;;;11.30;3.35;;;18.70;99.90;;;;;;5076399;28;20035;-71
2023/08/22 00:51:41;;;;;;;5.53;3.13;;;18.70;99.90;;;;;;5096014;28;20052;-70
2023/08/22 00:54:07;;;;;;;7.45;2.95;;;18.70;99.90;;;;;;5096010;28;20043;-70
2023/08/22 00:56:34;;;;;;;6.78;2.83;;;18.70;99.90;;;;;;5096139;28;20067;-71
2023/08/22 00:59:02;;;;;;;5.53;2.75;;;18.70;99.90;;;;;;5095939;28;20079;-69
2023/08/22 01:01:29;;;;;;;4.22;2.60;;;18.60;99.90;;;;;;5094892;28;20513;-70
2023/08/22 01:03:55;;;;;;;3.60;3.17;;;18.60;99.90;;;;;;5096232;28;20407;-70
2023/08/22 01:06:52;;;;;;;11.60;2.90;;;18.60;99.90;;;;;;5095740;28;20036;-70
2023/08/22 01:09:35;;;;;;;4.35;2.50;;;18.60;99.90;;;;;;5094744;28;20048;-70
2023/08/22 01:12:21;;;;;;;6.00;2.35;;;18.60;99.90;;;;;;5097233;28;20056;-71
2023/08/22 01:14:56;;;;;;;9.30;2.95;;;18.50;99.90;;;;;;5095119;28;20048;-71
2023/08/22 01:17:23;;;;;;;4.45;2.83;;;18.50;99.90;;;;;;5095576;28;20052;-71
2023/08/22 01:19:49;;;;;;;3.70;2.25;;;18.50;99.90;;;;;;5078261;28;20083;-70
2023/08/22 01:22:15;;;;;;;6.78;3.35;;;18.50;99.90;;;;;;5095883;28;20043;-70
2023/08/22 01:24:40;;;;;;;9.50;2.95;;;18.50;99.90;;;;;;5096694;28;20051;-71
2023/08/22 01:27:09;;;;;;;6.75;2.80;;;18.50;99.90;;;;;;5077180;28;20048;-71
2023/08/22 01:29:45;;;;;;;6.35;3.00;;;18.40;99.90;;;;;;5095795;28;20044;-70
2023/08/22 01:32:23;;;;;;;5.60;2.53;;;18.30;99.90;;;;;;5095599;28;20032;-71
2023/08/22 01:34:54;;;;;;;4.40;2.55;;;18.40;99.90;;;;;;5095989;28;20058;-70
2023/08/22 01:37:22;;;;;;;4.53;2.67;;;18.30;99.90;;;;;;5095110;28;20062;-71
2023/08/22 01:39:48;;;;;;;6.30;2.90;;;18.40;99.90;;;;;;5095148;28;20121;-71
2023/08/22 01:42:14;;;;;;;6.47;2.83;;;18.40;99.90;;;;;;5095401;28;20055;-71
2023/08/22 01:44:39;;;;;;;8.80;3.33;;;18.30;99.90;;;;;;5093419;28;20036;-70
2023/08/22 01:47:05;;;;;;;10.20;3.97;;;18.30;99.90;;;;;;5095746;28;20044;-70
2023/08/22 01:49:35;;;;;;;6.75;3.38;;;18.30;99.90;;;;;;5095393;28;20400;-71
2023/08/22 01:52:01;;;;;;;6.72;4.05;;;18.20;99.90;;;;;;5094392;28;20113;-70
2023/08/22 01:54:27;;;;;;;6.63;4.13;;;18.20;99.90;;;;;;5096260;28;20039;-70
2023/08/22 01:56:53;;;;;;;6.20;3.78;;;18.20;99.90;;;;;;5094885;28;20052;-70
2023/08/22 01:59:18;;;;;;;6.45;3.45;;;18.30;99.90;;;;;;5094827;28;20048;-70
2023/08/22 02:01:44;;;;;;;6.50;3.00;;;18.30;99.90;;;;;;5094274;28;20043;-71
2023/08/22 02:04:10;;;;;;;4.88;2.75;;;18.30;99.90;;;;;;5078185;28;20047;-70
2023/08/22 02:06:35;;;;;;;3.80;2.70;;;18.20;99.90;;;;;;5093988;28;20052;-70
2023/08/22 02:09:01;;;;;;;7.40;3.67;;;18.30;99.90;;;;;;5095724;28;20079;-69
2023/08/22 02:11:27;;;;;;;9.70;3.17;;;18.20;99.90;;;;;;5096176;28;20075;-70
2023/08/22 02:13:53;;;;;;;7.10;3.20;;;18.30;99.90;;;;;;5093004;28;20060;-70
2023/08/22 02:16:19;;;;;;;5.20;3.15;;;18.40;99.90;;;;;;5096381;28;20146;-71
2023/08/22 02:18:44;;;;;;;6.75;3.83;;;18.30;99.90;;;;;;5094650;28;20040;-70
2023/08/22 02:21:10;;;;;;;8.13;4.13;;;18.30;99.90;;;;;;5095349;28;20052;-70
2023/08/22 02:23:36;;;;;;;6.53;3.85;;;18.20;99.90;;;;;;5076794;28;20097;-69
2023/08/22 02:26:01;;;;;;;6.97;4.05;;;18.20;99.90;;;;;;5093959;28;20094;-70
2023/08/22 02:28:27;;;;;;;5.57;3.33;;;18.10;99.90;;;;;;5095756;28;20033;-69
2023/08/22 02:30:56;;;;;;;8.75;3.50;;;18.00;99.90;;;;;;5094779;28;20042;-69
2023/08/22 02:33:23;;;;;;;6.32;3.65;;;17.90;99.90;;;;;;5094379;28;20071;-69
2023/08/22 02:35:49;;;;;;;6.78;3.35;;;17.90;99.90;;;;;;5076571;28;20083;-70
2023/08/22 02:38:15;;;;;;;7.13;3.20;;;17.90;99.90;;;;;;5094906;28;20392;-69
2023/08/22 02:40:41;;;;;;;5.38;3.50;;;17.90;99.90;;;;;;5093766;28;20408;-69
2023/08/22 02:43:06;;;;;;;8.13;3.85;;;18.00;99.90;;;;;;5095822;28;20040;-70
2023/08/22 02:45:32;;;;;;;8.18;3.50;;;17.90;99.90;;;;;;5095913;28;20048;-69
2023/08/22 02:47:58;;;;;;;9.32;3.90;;;17.90;99.90;;;;;;5094605;28;20937;-70
2023/08/22 02:50:24;;;;;;;6.88;3.90;;;17.90;99.90;;;;;;5094726;28;20051;-70
2023/08/22 02:52:53;;;;;;;8.00;4.10;;;18.00;99.90;;;;;;5093299;28;20044;-70
2023/08/22 02:55:19;;;;;;;10.85;4.20;;;18.00;99.90;;;;;;5096276;28;20149;-70
2023/08/22 02:57:44;;;;;;;5.80;4.13;;;18.00;99.90;;;;;;5093444;28;20372;-69
2023/08/22 03:00:11;;;;;;;10.40;4.70;;;18.00;99.90;;;;;;5094849;28;20043;-69
2023/08/22 03:02:40;;;;;;;7.00;4.40;;;18.00;99.90;;;;;;5094483;28;20259;-69
2023/08/22 03:05:09;;;;;;;7.68;4.70;;;17.90;99.90;;;;;;5093513;28;20059;-70
2023/08/22 03:07:35;;;;;;;6.35;4.43;;;17.90;99.90;;;;;;5095744;28;20054;-70
2023/08/22 03:10:01;;;;;;;12.88;5.30;;;18.00;99.90;;;;;;5092961;28;20123;-69
2023/08/22 03:12:26;;;;;;;6.82;4.40;;;18.00;99.90;;;;;;5094904;28;20071;-70
2023/08/22 03:14:52;;;;;;;9.00;4.90;;;17.90;99.90;;;;;;5094473;28;20052;-69
2023/08/22 03:17:18;;;;;;;7.70;4.90;;;17.90;99.90;;;;;;5098995;28;20040;-70
2023/08/22 03:19:44;;;;;;;8.70;5.43;;;17.90;99.90;;;;;;5097683;28;20044;-70
2023/08/22 03:22:09;;;;;;;10.48;5.15;;;17.90;99.90;;;;;;5097851;28;20074;-69
2023/08/22 03:24:35;;;;;;;7.43;4.80;;;17.90;99.90;;;;;;5098972;28;20049;-69
2023/08/22 03:27:01;;;;;;;9.40;4.93;;;17.90;99.90;;;;;;5097594;28;20052;-70
2023/08/22 03:29:27;;;;;;;6.20;4.65;;;17.90;99.90;;;;;;5097900;28;20048;-69
2023/08/22 03:31:53;;;;;;;6.13;3.97;;;17.80;99.90;;;;;;5097463;28;20040;-70
2023/08/22 03:34:19;;;;;;;7.13;4.63;;;17.80;99.90;;;;;;5099157;28;20155;-70
2023/08/22 03:36:45;;;;;;;6.47;5.10;;;17.80;99.90;;;;;;5096870;28;20564;-71
2023/08/22 03:39:10;;;;;;;8.77;5.00;;;17.80;99.90;;;;;;5096334;28;20373;-69
2023/08/22 03:41:36;;;;;;;12.32;5.35;;;17.70;99.90;;;;;;5098719;28;20139;-71
2023/08/22 03:44:02;;;;;;;6.20;4.85;;;17.70;99.90;;;;;;5097462;28;20036;-69
2023/08/22 03:46:28;;;;;;;6.18;4.72;;;17.70;99.90;;;;;;5080685;28;20104;-69
2023/08/22 03:48:54;;;;;;;13.13;5.32;;;17.70;99.90;;;;;;5095960;28;20533;-69
2023/08/22 03:51:20;;;;;;;9.63;5.00;;;17.70;99.90;;;;;;5099070;28;20044;-69
2023/08/22 03:53:46;;;;;;;5.63;4.32;;;17.70;99.90;;;;;;5096286;28;20073;-69
2023/08/22 03:56:11;;;;;;;8.05;4.63;;;17.70;99.90;;;;;;5097965;28;20044;-71
2023/08/22 03:58:37;;;;;;;7.35;4.50;;;17.70;99.90;;;;;;5098463;28;20051;-71
2023/08/22 04:01:03;;;;;;;5.03;4.40;;;17.70;99.90;;;;;;5078601;28;20044;-70
2023/08/22 04:03:30;;;;;;;6.22;4.47;;;17.70;99.90;;;;;;5098520;28;20043;-70
2023/08/22 04:05:58;;;;;;;7.15;4.68;;;17.70;99.90;;;;;;5096857;28;20113;-70
2023/08/22 04:08:24;;;;;;;7.93;4.80;;;17.60;99.90;;;;;;5098619;28;20040;-70
2023/08/22 04:10:51;;;;;;;7.95;5.00;;;17.60;99.90;;;;;;5097326;28;20048;-70
2023/08/22 04:13:16;;;;;;;8.82;4.32;;;17.60;99.90;;;;;;5096134;28;20074;-71
2023/08/22 04:15:42;;;;;;;8.10;4.55;;;17.60;99.90;;;;;;5098256;28;20040;-70
2023/08/22 04:18:08;;;;;;;6.63;5.07;;;17.60;99.90;;;;;;5095600;28;20044;-71
2023/08/22 04:20:34;;;;;;;7.95;5.20;;;17.60;99.90;;;;;;5096896;28;20048;-70
2023/08/22 04:22:59;;;;;;;8.88;4.95;;;17.50;99.90;;;;;;5095249;28;20063;-70
2023/08/22 04:25:25;;;;;;;7.30;4.53;;;17.50;99.90;;;;;;5097759;28;20048;-71
2023/08/22 04:27:51;;;;;;;7.95;5.47;;;17.50;99.90;;;;;;5096967;28;20629;-71
2023/08/22 04:30:16;;;;;;;7.00;5.40;;;17.40;99.90;;;;;;5096482;28;20094;-72
2023/08/22 04:32:43;;;;;;;12.27;6.70;;;17.40;99.90;;;;;;5096739;28;20040;-72
2023/08/22 04:35:09;;;;;;;10.38;6.22;;;17.40;99.90;;;;;;5096803;28;20407;-71
2023/08/22 04:37:35;;;;;;;10.05;6.13;;;17.40;99.90;;;;;;5096653;28;20040;-71
2023/08/22 04:40:01;;;;;;;13.27;6.82;;;17.40;99.90;;;;;;5091203;28;20163;-72
2023/08/22 04:42:27;;;;;;;11.75;7.03;;;17.30;99.90;;;;;;5059865;28;20044;-72
2023/08/22 04:44:53;;;;;;;9.25;7.13;;;17.30;99.90;;;;;;5075333;28;20044;-69
2023/08/22 04:47:18;;;;;;;10.13;7.57;;;17.30;99.90;;;;;;5076193;28;20060;-69
2023/08/22 04:49:45;;;;;;;12.35;8.38;;;17.30;99.90;;;;;;5075800;28;20143;-71
2023/08/22 04:52:11;;;;;;;13.07;8.23;;;17.30;99.90;;;;;;5076108;28;20048;-71
2023/08/22 04:54:37;;;;;;;12.82;8.13;;;17.30;99.90;;;;;;5077382;28;20071;-71
2023/08/22 04:57:03;;;;;;;10.45;7.88;;;17.30;99.90;;;;;;5075907;28;20100;-70
2023/08/22 04:59:28;;;;;;;11.07;7.97;;;17.30;99.90;;;;;;5077561;28;20044;-70
2023/08/22 05:01:54;;;;;;;9.73;5.95;;;17.20;99.90;;;;;;5076004;28;20075;-70
2023/08/22 05:04:20;;;;;;;8.70;6.13;;;17.10;99.90;;;;;;5075724;28;20132;-70
2023/08/22 05:06:46;;;;;;;11.00;7.30;;;17.20;99.90;;;;;;5076489;28;20101;-71
2023/08/22 05:09:16;;;;;;;11.10;7.95;;;17.20;99.90;;;;;;5076082;28;20207;-69
2023/08/22 05:11:42;;;;;;;11.60;6.53;;;17.20;99.90;;;;;;5075395;28;20049;-71
2023/08/22 05:14:09;;;;;;;13.52;6.60;;;17.20;99.90;;;;;;5075599;28;20398;-69
2023/08/22 05:16:35;;;;;;;7.55;5.50;;;17.10;99.90;;;;;;5075980;28;20040;-69
2023/08/22 05:19:01;;;;;;;6.68;4.80;;;17.10;99.90;;;;;;5075639;28;20048;-70
2023/08/22 05:21:27;;;;;;;6.00;4.60;;;17.00;99.90;;;;;;5075631;28;20057;-70
2023/08/22 05:23:52;;;;;;;10.05;4.90;;;17.00;99.90;;;;;;5076221;28;20040;-72
2023/08/22 05:26:18;;;;;;;8.13;5.75;;;17.10;99.90;;;;;;5075386;28;20052;-70
2023/08/22 05:28:45;;;;;;;8.60;5.70;;;17.20;99.90;;;;;;5076793;28;20045;-70
2023/08/22 05:31:21;;;;;;;10.90;6.10;;;17.10;99.90;;;;;;5057388;28;20108;-69
2023/08/22 05:33:47;;;;;;;6.32;5.55;;;17.30;99.90;;;;;;5076824;28;20123;-70
2023/08/22 05:36:13;;;;;;;6.55;5.75;;;17.40;99.90;;;;;;5057197;28;20083;-71
2023/08/22 05:38:39;;;;;;;6.22;4.63;;;17.60;99.90;;;;;;5075028;28;20040;-70
2023/08/22 05:41:04;;;;;;;11.57;5.07;;;17.60;99.90;;;;;;5074853;28;20043;-69
2023/08/22 05:43:30;;;;;;;9.52;5.35;;;17.50;99.90;;;;;;5074429;28;20049;-69
2023/08/22 05:45:56;;;;;;;7.60;4.78;;;17.60;99.90;;;;;;5075203;28;20098;-71
2023/08/22 05:48:21;;;;;;;8.23;4.97;;;17.70;99.90;;;;;;5075466;28;20131;-71
2023/08/22 05:50:48;;;;;;;9.55;5.40;;;17.90;99.90;;;;;;5075424;28;20104;-71
2023/08/22 05:53:14;;;;;;;6.63;5.32;;;18.00;99.90;;;;;;5075301;28;20053;-70
2023/08/22 05:55:39;;;;;;;8.82;5.82;;;18.10;99.90;;;;;;5075463;28;20055;-71
2023/08/22 05:58:05;;;;;;;12.25;6.97;;;18.20;99.90;;;;;;5074853;28;20045;-71
2023/08/22 06:00:31;;;;;;;11.18;7.40;;;18.20;99.90;;;;;;5074727;28;20060;-70
2023/08/22 06:02:58;;;;;;;12.13;8.38;;;18.20;99.90;;;;;;5076451;28;20123;-72
2023/08/22 06:05:24;;;;;;;14.82;9.48;;;18.30;99.90;;;;;;5073949;28;20930;-70
2023/08/22 06:07:50;;;;;;;13.55;9.07;;;18.50;99.90;;;;;;5076551;28;20047;-71
2023/08/22 06:10:16;;;;;;;16.48;9.45;;;18.70;99.90;;;;;;5073560;28;20052;-71
2023/08/22 06:12:41;;;;;;;14.18;8.88;;;18.90;99.90;;;;;;5075313;28;20040;-70
2023/08/22 06:15:07;;;;;;;14.18;9.48;;;19.10;99.90;;;;;;5073731;28;20091;-72
2023/08/22 06:17:34;;;;;;;17.08;9.43;;;19.10;99.90;;;;;;5072686;28;20044;-71
2023/08/22 06:20:00;;;;;;;13.05;9.35;;;19.30;99.90;;;;;;5075871;28;20108;-72
2023/08/22 06:22:26;;;;;;;16.70;9.93;;;19.40;99.90;;;;;;5074861;28;20075;-72
2023/08/22 06:24:52;;;;;;;16.08;9.65;;;19.50;99.90;;;;;;5075456;28;20114;-72
2023/08/22 06:27:18;;;;;;;13.07;8.82;;;19.60;99.90;;;;;;5074226;28;20119;-72
2023/08/22 06:29:44;;;;;;;16.15;8.40;;;19.80;99.90;;;;;;5076621;28;20577;-70
2023/08/22 06:32:10;;;;;;;14.60;8.98;;;19.80;99.90;;;;;;5073642;28;20036;-71
2023/08/22 06:34:35;;;;;;;14.27;9.07;;;19.90;99.90;;;;;;5074363;28;20127;-71
2023/08/22 06:37:01;;;;;;;15.43;8.88;;;19.90;99.90;;;;;;5076207;28;20052;-71
2023/08/22 06:39:27;;;;;;;11.63;8.48;;;20.00;99.90;;;;;;5073175;28;20052;-72
2023/08/22 06:41:53;;;;;;;12.32;8.98;;;20.10;99.90;;;;;;5074425;28;20099;-72
2023/08/22 06:44:18;;;;;;;18.15;8.70;;;20.10;99.90;;;;;;5074906;28;20056;-71
2023/08/22 06:46:44;;;;;;;12.18;8.25;;;20.10;99.90;;;;;;5074752;28;20041;-73
2023/08/22 06:49:10;;;;;;;12.98;7.90;;;20.20;99.90;;;;;;5077561;28;20055;-70
2023/08/22 06:51:36;;;;;;;12.90;9.07;;;20.20;99.90;;;;;;5079611;28;20045;-72
2023/08/22 06:54:02;;;;;;;13.32;9.50;;;20.30;99.90;;;;;;5079118;28;20067;-72
2023/08/22 06:56:27;;;;;;;16.52;9.10;;;20.40;99.90;;;;;;5076945;28;20082;-71
2023/08/22 06:58:53;;;;;;;17.77;9.18;;;20.50;99.90;;;;;;5078499;28;20052;-72
2023/08/22 07:01:19;;;;;;;13.00;7.75;;;20.40;99.90;;;;;;5078094;28;20055;-72
2023/08/22 07:03:45;;;;;;;11.98;8.02;;;20.40;99.90;;;;;;5078402;28;20048;-72
2023/08/22 07:06:10;;;;;;;14.57;8.13;;;20.40;99.90;;;;;;5077621;28;20060;-71
2023/08/22 07:08:36;;;;;;;14.43;8.13;;;20.30;99.90;;;;;;5076992;28;20036;-72
2023/08/22 07:11:03;;;;;;;14.18;8.20;;;20.40;99.90;;;;;;5078488;28;20048;-71
2023/08/22 07:13:30;;;;;;;15.90;8.13;;;20.40;99.90;;;;;;5076366;28;20047;-70
2023/08/22 07:15:56;;;;;;;11.95;8.10;;;20.40;99.90;;;;;;5078885;28;20065;-71
2023/08/22 07:18:22;;;;;;;14.95;8.10;;;20.40;99.90;;;;;;5078239;28;20051;-83
2023/08/22 07:20:51;;;;;;;10.70;6.97;;;20.40;99.90;;;;;;5079595;28;20502;-77
2023/08/22 07:23:20;;;;;;;11.10;7.45;;;20.50;99.90;;;;;;5078014;28;20049;-78
2023/08/22 07:25:50;;;;;;;14.05;6.57;;;20.60;99.90;;;;;;5078678;28;20048;-77
2023/08/22 07:28:16;;;;;;;17.83;7.72;;;20.60;99.90;;;;;;5077744;28;20063;-79
2023/08/22 07:30:45;;;;;;;14.75;7.45;;;20.80;99.90;;;;;;5076715;28;20068;-78
2023/08/22 07:33:12;;;;;;;13.73;6.32;;;20.80;99.90;;;;;;5077908;28;20048;-78
2023/08/22 07:35:38;;;;;;;10.20;6.03;;;20.90;99.90;;;;;;5077719;28;20115;-77
2023/08/22 07:38:03;;;;;;;13.88;6.75;;;21.00;99.90;;;;;;5079275;28;20076;-78
2023/08/22 07:40:30;;;;;;;13.63;5.70;;;21.00;99.90;;;;;;5076595;28;20041;-77
2023/08/22 07:42:56;;;;;;;11.25;5.55;;;21.00;99.90;;;;;;5060917;28;20040;-81
2023/08/22 07:45:22;;;;;;;10.50;5.53;;;21.00;99.90;;;;;;5077640;28;20086;-79
2023/08/22 07:47:48;;;;;;;16.58;4.90;;;21.10;99.90;;;;;;5076699;28;20033;-77
2023/08/22 07:50:14;;;;;;;10.02;5.05;;;21.10;99.90;;;;;;5088120;28;20043;-80
2023/08/22 07:52:39;;;;;;;10.32;4.00;;;21.10;99.90;;;;;;5055561;28;20029;-79
2023/08/22 07:55:05;;;;;;;8.88;5.00;;;21.20;99.90;;;;;;5069328;28;20055;-79
2023/08/22 07:57:31;;;;;;;9.70;4.75;;;21.20;99.90;;;;;;5039558;28;20407;-81
2023/08/22 08:00:00;;;;;;;7.63;4.03;;;21.20;99.90;;;;;;5058461;28;20385;-80
2023/08/22 08:02:27;;;;;;;11.45;4.43;;;21.30;99.90;;;;;;5043892;28;20063;-71
2023/08/22 08:04:53;;;;;;;8.35;4.13;;;21.40;99.90;;;;;;5067505;28;20060;-69
2023/08/22 08:07:19;;;;;;;8.55;4.45;;;21.40;99.90;;;;;;5046978;28;20041;-72
2023/08/22 08:09:45;;;;;;;11.13;4.07;;;21.40;99.90;;;;;;5057202;28;20532;-72
2023/08/22 08:12:12;;;;;;;8.93;3.80;;;21.40;99.90;;;;;;5057208;28;20105;-72
2023/08/22 08:14:37;;;;;;;5.47;2.30;;;21.50;99.90;;;;;;5056809;28;20102;-70
2023/08/22 08:17:03;;;;;;;10.18;2.10;;;21.50;99.90;;;;;;5040636;28;20049;-70
2023/08/22 08:19:29;;;;;;;5.05;2.05;;;21.60;99.90;;;;;;5057812;28;20052;-71
2023/08/22 08:21:55;;;;;;;3.03;1.52;;;21.60;99.90;;;;;;5057193;28;20056;-71
2023/08/22 08:24:21;;;;;;;3.22;1.58;;;21.50;99.90;;;;;;5056782;28;20523;-71
2023/08/22 08:26:46;;;;;;;4.28;1.63;;;21.50;99.90;;;;;;5055084;28;20082;-69
2023/08/22 08:29:12;;;;;;;6.43;1.60;;;21.50;99.90;;;;;;5068880;28;20084;-66
2023/08/22 08:31:38;;;;;;;4.38;1.83;;;21.50;99.90;;;;;;5075001;28;20051;-69
2023/08/22 08:34:04;;;;;;;6.22;1.60;;;21.50;99.90;;;;;;5078389;28;20390;-69
2023/08/22 08:36:29;;;;;;;4.05;1.48;;;21.50;99.90;;;;;;5075614;28;20050;-69
2023/08/22 08:38:55;;;;;;;2.60;1.50;;;21.50;99.90;;;;;;5077262;28;20053;-69
2023/08/22 08:41:22;;;;;;;5.13;1.63;;;21.50;99.90;;;;;;5076157;28;20511;-69
2023/08/22 08:43:49;;;;;;;2.92;1.50;;;21.50;99.90;;;;;;5076408;28;20032;-69
2023/08/22 08:46:15;;;;;;;2.28;1.55;;;21.60;99.90;;;;;;5059607;28;20045;-68
2023/08/22 08:48:42;;;;;;;3.80;1.35;;;21.50;99.90;;;;;;5039272;28;20052;-68
2023/08/22 08:51:08;;;;;;;4.70;1.35;;;21.60;99.90;;;;;;5075650;28;20036;-69
2023/08/22 08:53:35;;;;;;;3.55;1.50;;;21.60;99.90;;;;;;5058548;28;20048;-71
2023/08/22 08:56:03;;;;;;;3.80;1.38;;;21.60;99.90;;;;;;5058805;28;20044;-71
2023/08/22 08:58:28;;;;;;;2.05;1.38;;;21.70;99.90;;;;;;5076096;28;20101;-72
2023/08/22 09:00:56;;;;;;;3.97;1.52;;;21.70;99.90;;;;;;5074544;28;20044;-70
2023/08/22 09:03:21;;;;;;;3.20;1.40;;;21.80;99.90;;;;;;5077249;28;20051;-81
2023/08/22 09:05:47;;;;;;;2.30;1.05;;;21.80;99.90;;;;;;5075958;28;20040;-84
2023/08/22 09:08:15;;;;;;;4.78;1.48;;;21.90;99.90;;;;;;5077578;28;20407;-83
2023/08/22 09:10:41;;;;;;;4.22;1.63;;;22.00;99.90;;;;;;5075102;28;20447;-81
2023/08/22 09:13:07;;;;;;;2.08;1.05;;;22.00;99.90;;;;;;5076749;28;20041;-77
2023/08/22 09:15:33;;;;;;;2.10;1.30;;;22.10;99.90;;;;;;5077016;28;20052;-72
2023/08/22 09:17:59;;;;;;;4.00;1.23;;;22.10;99.90;;;;;;5075450;28;20055;-81
2023/08/22 09:20:25;;;;;;;2.70;1.50;;;22.20;99.90;;;;;;5077286;28;20040;-71
2023/08/22 09:22:50;;;;;;;6.75;1.40;;;22.20;99.90;;;;;;5074277;28;20071;-79
2023/08/22 09:25:17;;;;;;;3.95;1.45;;;22.20;99.90;;;;;;5077196;28;20040;-80
2023/08/22 09:27:48;;;;;;;3.17;1.30;;;22.20;99.90;;;;;;5074772;28;20091;-81
2023/08/22 09:30:15;;;;;;;3.30;1.38;;;22.20;99.90;;;;;;5076719;28;20076;-78
2023/08/22 09:32:41;;;;;;;2.65;1.38;;;22.20;99.90;;;;;;5075428;28;20066;-79
2023/08/22 09:35:07;;;;;;;3.67;1.40;;;22.20;99.90;;;;;;5074243;28;20116;-80
2023/08/22 09:37:34;;;;;;;3.13;1.50;;;22.20;99.90;;;;;;5076928;28;20028;-78
2023/08/22 09:40:03;;;;;;;2.65;1.05;;;22.20;99.90;;;;;;5074372;28;20052;-80
2023/08/22 09:42:29;;;;;;;3.60;1.55;;;22.30;99.90;;;;;;5076008;28;20518;-78
2023/08/22 09:44:57;;;;;;;2.60;1.35;;;22.40;99.90;;;;;;5058390;28;20079;-79
2023/08/22 09:47:34;;;;;;;5.43;1.50;;;22.40;99.90;;;;;;5056415;28;20087;-80
2023/08/22 09:50:04;;;;;;;3.05;1.85;;;22.50;99.90;;;;;;5055661;28;20052;-79
2023/08/22 09:52:31;;;;;;;3.20;1.35;;;22.60;99.90;;;;;;5064306;28;20048;-77
2023/08/22 09:54:57;;;;;;;5.15;1.77;;;22.70;99.90;;;;;;5095875;28;20044;-79
2023/08/22 09:57:27;;;;;;;6.20;1.52;;;22.70;99.90;;;;;;5095686;28;20032;-71
2023/08/22 09:59:53;;;;;;;7.18;2.00;;;22.70;99.90;;;;;;5095546;28;20055;-77
2023/08/22 10:02:19;;;;;;;6.15;2.30;;;22.80;99.90;;;;;;5096128;28;20035;-77
2023/08/22 10:04:46;;;;;;;3.60;1.73;;;22.80;99.90;;;;;;5094402;28;20055;-78
2023/08/22 10:07:12;;;;;;;4.75;1.50;;;22.70;99.90;;;;;;5078646;28;20048;-75
2023/08/22 10:09:39;;;;;;;5.78;2.08;;;22.80;99.90;;;;;;5095519;28;20040;-73
2023/08/22 10:12:09;;;;;;;3.28;1.77;;;22.80;99.90;;;;;;5095432;28;20408;-75
2023/08/22 10:14:50;;;;;;;3.08;1.88;;;22.90;99.90;;;;;;5095159;28;20048;-72
2023/08/22 10:17:16;;;;;;;4.63;1.88;;;22.90;99.90;;;;;;5096201;28;20184;-73
2023/08/22 10:19:43;;;;;;;5.65;2.10;;;23.00;99.90;;;;;;5095159;28;20056;-80
2023/08/22 10:22:13;;;;;;;5.03;1.90;;;23.10;99.90;;;;;;5093967;28;20471;-75
2023/08/22 10:24:40;;;;;;;5.88;2.00;;;23.30;99.90;;;;;;5100024;28;20082;-73
2023/08/22 10:27:12;;;;;;;4.03;2.17;;;23.20;99.90;;;;;;5080564;28;20086;-73
2023/08/22 10:29:45;;;;;;;4.63;2.47;;;23.30;99.90;;;;;;5066233;28;20052;-73
2023/08/22 10:32:11;;;;;;;3.92;1.83;;;23.10;99.90;;;;;;5099753;28;20274;-74
2023/08/22 10:34:42;;;;;;;5.47;1.80;;;23.10;99.90;;;;;;5099831;28;20080;-73
2023/08/22 10:37:14;;;;;;;4.00;1.90;;;23.10;99.90;;;;;;5099011;28;20040;-73
2023/08/22 10:39:44;;;;;;;6.15;1.88;;;23.10;99.90;;;;;;5099138;28;20040;-73
2023/08/22 10:42:13;;;;;;;3.40;1.75;;;23.10;99.90;;;;;;5098962;28;20048;-72
2023/08/22 10:44:40;;;;;;;3.85;1.75;;;23.10;99.90;;;;;;5099111;28;20046;-73
2023/08/22 10:47:26;;;;;;;6.63;1.83;;;23.20;99.90;;;;;;5081762;28;20072;-73
2023/08/22 10:49:54;;;;;;;4.70;1.65;;;23.20;99.90;;;;;;5100257;28;20053;-75
2023/08/22 10:52:36;;;;;;;2.83;1.70;;;23.20;99.90;;;;;;5098959;28;20063;-74
2023/08/22 10:55:08;;;;;;;4.10;1.35;;;23.30;99.90;;;;;;5099107;28;20531;-75
2023/08/22 10:57:36;;;;;;;;;;;23.30;99.90;;;;;;5098438;28;20048;-73
2023/08/22 11:00:12;;;;;;;3.17;1.45;;;23.30;99.90;;;;;;5098727;28;20288;-74
2023/08/22 11:02:39;;;;;;;2.20;1.10;;;23.30;99.90;;;;;;5099171;28;20180;-74
2023/08/22 11:05:11;;;;;;;2.92;1.20;;;23.30;99.90;;;;;;5099185;28;20081;-73
2023/08/22 11:07:42;;;;;;;5.03;1.70;;;23.30;99.90;;;;;;5099421;28;20039;-73
2023/08/22 11:10:19;;;;;;;4.07;1.50;;;23.30;99.90;;;;;;5097343;28;20055;-73
2023/08/22 11:12:45;;;;;;;2.40;1.48;;;23.30;99.90;;;;;;5098702;28;20068;-73
2023/08/22 11:15:15;;;;;;;3.45;1.80;;;23.40;99.90;;;;;;5099021;28;20055;-73
2023/08/22 11:17:43;;;;;;;5.05;2.08;;;23.50;99.90;;;;;;5098427;28;20052;-74
2023/08/22 11:20:17;;;;;;;3.45;1.80;;;23.40;99.90;;;;;;5099561;28;20071;-72
2023/08/22 11:22:44;;;;;;;4.20;2.00;;;23.50;99.90;;;;;;5098216;28;20453;-73
2023/08/22 11:25:11;;;;;;;5.32;2.13;;;23.50;99.90;;;;;;5098036;28;20047;-72
2023/08/22 11:27:38;;;;;;;6.25;2.00;;;23.60;99.90;;;;;;5080456;28;20103;-69
2023/08/22 11:30:04;;;;;;;6.28;1.50;;;23.60;99.90;;;;;;5097560;28;20410;-70
2023/08/22 11:32:38;;;;;;;5.10;1.48;;;23.50;99.90;;;;;;5097852;28;20062;-74
2023/08/22 11:35:06;;;;;;;3.50;1.40;;;23.50;99.90;;;;;;5095474;28;20062;-70
2023/08/22 11:37:37;;;;;;;3.05;1.30;;;23.60;99.90;;;;;;5099503;28;20139;-73
2023/08/22 11:40:04;;;;;;;2.58;1.63;;;23.70;99.90;;;;;;5096420;28;20075;-73
2023/08/22 11:42:33;;;;;;;4.28;1.27;;;23.70;99.90;;;;;;5098097;28;20222;-70
2023/08/22 11:45:04;;;;;;;3.70;0.90;;;23.80;99.90;;;;;;5096700;28;20161;-71
2023/08/22 11:47:50;;;;;;;3.00;1.50;;;23.80;99.90;;;;;;5096733;28;20051;-72
2023/08/22 11:50:27;;;;;;;4.57;1.20;;;23.90;99.90;;;;;;5080610;28;20063;-74
2023/08/22 11:52:57;;;;;;;2.00;1.08;;;23.90;99.90;;;;;;5078974;28;20048;-73
2023/08/22 11:55:28;;;;;;;2.40;1.02;;;23.90;99.90;;;;;;5099147;28;20047;-72
2023/08/22 11:58:04;;;;;;;1.88;1.10;;;24.00;99.90;;;;;;5096684;28;20058;-74
2023/08/22 12:00:32;;;;;;;3.85;1.25;;;24.00;99.90;;;;;;5097907;28;20036;-72
2023/08/22 12:02:59;;;;;;;3.45;1.10;;;24.00;99.90;;;;;;5098749;28;20036;-74
2023/08/22 12:05:29;;;;;;;4.72;0.98;;;24.10;99.90;;;;;;5089254;28;20044;-71
2023/08/22 12:07:54;;;;;;;3.95;0.90;;;24.10;99.90;;;;;;5060440;28;20103;-77
2023/08/22 12:10:20;;;;;;;1.65;0.60;;;24.20;99.90;;;;;;5075874;28;20518;-72
2023/08/22 12:12:46;;;;;;;5.75;0.77;;;24.20;99.90;;;;;;5076855;28;20044;-78
2023/08/22 12:15:12;;;;;;;2.28;0.80;;;24.20;99.90;;;;;;5076405;28;20061;-78
2023/08/22 12:17:37;;;;;;;2.83;0.70;;;24.20;99.90;;;;;;5075754;28;20055;-78
2023/08/22 12:20:04;;;;;;;3.03;0.70;;;24.20;99.90;;;;;;5076563;28;20542;-78
2023/08/22 12:22:29;;;;;;;1.33;0.70;;;24.30;99.90;;;;;;5075507;28;20051;-80
2023/08/22 12:24:55;;;;;;;2.53;0.70;;;24.30;99.90;;;;;;5076695;28;20048;-80
2023/08/22 12:27:21;;;;;;;2.28;0.63;;;24.40;99.90;;;;;;5076402;28;20091;-83
2023/08/22 12:29:47;;;;;;;0.60;0.50;;;24.40;99.90;;;;;;5060188;28;20083;-78
2023/08/22 12:32:12;;;;;;;1.73;0.70;;;24.50;99.90;;;;;;5077518;28;20048;-78
2023/08/22 12:34:38;;;;;;;0.90;0.35;;;24.50;99.90;;;;;;5076924;28;20049;-78
2023/08/22 12:37:04;;;;;;;4.47;0.80;;;24.60;99.90;;;;;;5077854;28;20048;-77
2023/08/22 12:39:30;;;;;;;4.05;0.80;;;24.60;99.90;;;;;;5075130;28;20068;-78
2023/08/22 12:41:55;;;;;;;1.80;0.80;;;24.50;99.90;;;;;;5077918;28;20059;-79
2023/08/22 12:44:21;;;;;;;3.15;1.00;;;24.60;99.90;;;;;;5075095;28;20045;-77